Minerva Anna — SVNP — position and weather

sailwx.info

Track history (hours):
 
Tides and Currents Weather Stations Pressure Air Temp Water Temp Dewpoint Dewpoint Depression Visibility Wind Speed Wind Dir Waves Ship Positions

Minerva Anna

Last reported at 2016-Sep-27 00:31 UTC. Time now 2016-Sep-27 01:48 UTC.
Position N 35°59' E 014°51'.

Length 183 m; draft 10.2 m.

Type: Ship (hazmat cat A). MMSI: 240729000.

Date/timePositionNaut miles runAvg speedWind from/ knotsBaromVisibWave heightAir tempDewpointWater temp
2016-Sep-27 00:31N 35°59' E 014°51'0 0.0
2016-Sep-26 20:31N 35°60' E 014°51'0 0.0
2016-Sep-26 19:31N 35°60' E 014°51'1 0.3
2016-Sep-26 15:31N 36°00' E 014°52'0 0.0
2016-Sep-26 13:28N 36°00' E 014°52'0 0.0
2016-Sep-26 11:31N 36°00' E 014°52'0 0.0
2016-Sep-26 08:31N 36°00' E 014°52'0 0.0
2016-Sep-26 02:25N 36°00' E 014°52'0 0.0
2016-Sep-26 01:31N 36°00' E 014°52'0 0.0
2016-Sep-26 00:31N 36°00' E 014°52'0 0.0
2016-Sep-25 17:28N 36°01' E 014°52'0 0.0
2016-Sep-25 16:16N 36°00' E 014°52'0 0.0
2016-Sep-25 15:31N 36°01' E 014°52'0 0.0
2016-Sep-25 14:28N 36°00' E 014°52'0 0.0
2016-Sep-25 12:25N 36°01' E 014°52'1 0.8
2016-Sep-25 11:17N 36°01' E 014°53'1 1.1
2016-Sep-25 10:32N 36°01' E 014°54'1 0.5
2016-Sep-25 09:26N 36°01' E 014°53'0 0.2
2016-Sep-25 07:33N 36°00' E 014°53'3 0.8
2016-Sep-25 04:14N 35°59' E 014°50'0 0.0
2016-Sep-25 00:29N 35°59' E 014°50'0 0.0
2016-Sep-24 22:29N 35°59' E 014°50'0 0.0
2016-Sep-24 21:23N 35°59' E 014°50'0 0.0
2016-Sep-24 19:05N 35°59' E 014°50'0 0.0
2016-Sep-24 18:32N 35°59' E 014°50'0 0.0
2016-Sep-24 14:26N 35°59' E 014°50'0 0.0
2016-Sep-24 12:20N 35°59' E 014°50'0 0.0
2016-Sep-24 10:26N 35°59' E 014°50'0 0.0
2016-Sep-24 09:32N 35°59' E 014°50'4 0.7
2016-Sep-24 03:27N 35°60' E 014°55'0 0.0
2016-Sep-24 01:15N 35°60' E 014°55'0 0.0
2016-Sep-24 00:27N 35°60' E 014°55'0 0.0
2016-Sep-22 12:21N 35°60' E 014°55'  
2016-Sep-19 00:33N 40°51' E 028°20'  
Track history (hours):
 
Tides and Currents Weather Stations Pressure Air Temp Water Temp Dewpoint Dewpoint Depression Visibility Wind Speed Wind Dir Waves Ship Positions

Minerva Anna

Last reported at 2016-Sep-27 00:31 UTC. Time now 2016-Sep-27 01:48 UTC.
Position N 35°59' E 014°51'.

Length 183 m; draft 10.2 m.

Type: Ship (hazmat cat A). MMSI: 240729000.

Date/timePositionNaut miles runAvg speedWind from/ knotsBaromVisibWave heightAir tempDewpointWater temp
2016-Sep-27 00:31N 35°59' E 014°51'0 0.0
2016-Sep-26 20:31N 35°60' E 014°51'0 0.0
2016-Sep-26 19:31N 35°60' E 014°51'1 0.3
2016-Sep-26 15:31N 36°00' E 014°52'0 0.0
2016-Sep-26 13:28N 36°00' E 014°52'0 0.0
2016-Sep-26 11:31N 36°00' E 014°52'0 0.0
2016-Sep-26 08:31N 36°00' E 014°52'0 0.0
2016-Sep-26 02:25N 36°00' E 014°52'0 0.0
2016-Sep-26 01:31N 36°00' E 014°52'0 0.0
2016-Sep-26 00:31N 36°00' E 014°52'0 0.0
2016-Sep-25 17:28N 36°01' E 014°52'0 0.0
2016-Sep-25 16:16N 36°00' E 014°52'0 0.0
2016-Sep-25 15:31N 36°01' E 014°52'0 0.0
2016-Sep-25 14:28N 36°00' E 014°52'0 0.0
2016-Sep-25 12:25N 36°01' E 014°52'1 0.8
2016-Sep-25 11:17N 36°01' E 014°53'1 1.1
2016-Sep-25 10:32N 36°01' E 014°54'1 0.5
2016-Sep-25 09:26N 36°01' E 014°53'0 0.2
2016-Sep-25 07:33N 36°00' E 014°53'3 0.8
2016-Sep-25 04:14N 35°59' E 014°50'0 0.0
2016-Sep-25 00:29N 35°59' E 014°50'0 0.0
2016-Sep-24 22:29N 35°59' E 014°50'0 0.0
2016-Sep-24 21:23N 35°59' E 014°50'0 0.0
2016-Sep-24 19:05N 35°59' E 014°50'0 0.0
2016-Sep-24 18:32N 35°59' E 014°50'0 0.0
2016-Sep-24 14:26N 35°59' E 014°50'0 0.0
2016-Sep-24 12:20N 35°59' E 014°50'0 0.0
2016-Sep-24 10:26N 35°59' E 014°50'0 0.0
2016-Sep-24 09:32N 35°59' E 014°50'4 0.7
2016-Sep-24 03:27N 35°60' E 014°55'0 0.0
2016-Sep-24 01:15N 35°60' E 014°55'0 0.0
2016-Sep-24 00:27N 35°60' E 014°55'0 0.0
2016-Sep-22 12:21N 35°60' E 014°55'  
2016-Sep-19 00:33N 40°51' E 028°20'  

Dump ship's entire track history